Time;durP1;ratioP1;P1;durP2;ratioP2;P2;SDS_P1;SDS_P2;PMS_P1;PMS_P2;Temp;Humidity;BMP_temperature;BMP_pressure;BME280_temperature;BME280_humidity;BME280_pressure;Samples;Min_cycle;Max_cycle;Signal;HPM_P1;HPM_P2
2021/04/08 00:00:38;;;;;;;9.90;4.47;;;;;;;7.35;48.50;102014.25;5051169;28;20045;-69
2021/04/08 00:03:08;;;;;;;14.45;3.22;;;;;;;7.41;48.24;102005.81;5050820;28;20064;-70
2021/04/08 00:05:35;;;;;;;9.50;3.05;;;;;;;7.40;48.77;102012.41;5050846;28;20057;-69
2021/04/08 00:08:02;;;;;;;9.43;3.47;;;;;;;7.19;49.34;102015.19;5050173;28;20044;-70
2021/04/08 00:10:29;;;;;;;9.18;2.88;;;;;;;7.43;48.64;102017.34;5032995;28;20049;-70
2021/04/08 00:13:01;;;;;;;10.95;3.45;;;;;;;6.92;49.89;102014.38;5051050;28;20045;-71
2021/04/08 00:15:28;;;;;;;7.38;2.90;;;;;;;7.05;49.62;102014.78;5050947;28;20106;-70
2021/04/08 00:17:55;;;;;;;9.73;3.17;;;;;;;7.33;49.01;102019.16;5047552;28;20044;-70
2021/04/08 00:20:23;;;;;;;6.97;3.05;;;;;;;7.34;49.11;102012.63;5050006;28;20056;-71
2021/04/08 00:22:50;;;;;;;9.60;3.38;;;;;;;7.26;48.92;102013.06;5049655;28;20048;-70
2021/04/08 00:25:17;;;;;;;12.13;3.10;;;;;;;7.51;48.90;102016.88;5049027;28;20064;-72
2021/04/08 00:27:44;;;;;;;11.52;3.15;;;;;;;7.36;48.73;102014.00;5050341;28;20055;-70
2021/04/08 00:30:12;;;;;;;6.45;2.85;;;;;;;7.48;48.92;102014.66;5033094;28;20394;-71
2021/04/08 00:32:39;;;;;;;7.47;3.00;;;;;;;7.51;48.57;102013.31;5050484;28;20554;-69
2021/04/08 00:35:11;;;;;;;10.60;3.42;;;;;;;7.46;48.66;102014.06;5048614;28;20045;-71
2021/04/08 00:37:59;;;;;;;9.65;3.15;;;;;;;7.59;48.23;102007.34;5050531;28;20053;-70
2021/04/08 00:40:27;;;;;;;9.38;3.13;;;;;;;7.51;48.58;102007.81;5050679;28;20048;-68
2021/04/08 00:42:53;;;;;;;11.10;3.45;;;;;;;7.42;49.25;102012.97;5033146;28;20044;-71
2021/04/08 00:45:38;;;;;;;9.80;3.22;;;;;;;7.15;50.80;102003.13;5035095;28;20048;-72
2021/04/08 00:48:05;;;;;;;8.02;3.13;;;;;;;7.26;50.55;102013.91;5047786;28;20495;-71
2021/04/08 00:50:36;;;;;;;6.88;2.75;;;;;;;7.17;50.98;102020.09;5049727;28;20056;-70
2021/04/08 00:53:09;;;;;;;9.70;2.92;;;;;;;7.32;50.85;102017.53;5032458;28;20041;-70
2021/04/08 00:55:47;;;;;;;6.95;2.20;;;;;;;7.32;50.74;102017.53;5032402;28;20384;-71
2021/04/08 00:58:15;;;;;;;8.30;2.65;;;;;;;7.21;50.99;102010.28;5050200;28;20060;-69
2021/04/08 01:00:43;;;;;;;7.43;2.65;;;;;;;7.10;51.88;102014.00;5050022;28;20060;-69
2021/04/08 01:03:11;;;;;;;8.93;2.60;;;;;;;7.07;51.82;102009.88;5050667;28;20064;-69
2021/04/08 01:05:39;;;;;;;6.75;2.38;;;;;;;7.25;51.23;102012.28;5048069;28;20053;-70
2021/04/08 01:08:06;;;;;;;11.60;2.65;;;;;;;6.91;52.30;102016.28;5051058;28;20064;-70
2021/04/08 01:10:46;;;;;;;11.85;2.63;;;;;;;6.97;52.22;102003.47;5050119;28;20041;-70
2021/04/08 01:13:17;;;;;;;9.60;2.55;;;;;;;6.73;52.93;102014.72;5049422;28;20396;-70
2021/04/08 01:15:44;;;;;;;6.57;2.42;;;;;;;6.58;53.53;102006.34;5015547;28;20082;-70
2021/04/08 01:18:33;;;;;;;10.32;2.70;;;;;;;6.30;54.07;102022.09;5032201;28;20060;-71
2021/04/08 01:21:13;;;;;;;9.60;3.00;;;;;;;6.25;55.18;102019.31;5031665;28;20045;-71
2021/04/08 01:24:14;;;;;;;9.03;2.50;;;;;;;6.31;55.38;102032.78;5032339;28;20052;-71
2021/04/08 01:27:25;;;;;;;21.30;2.63;;;;;;;6.32;55.73;102031.72;5049679;28;20299;-71
2021/04/08 01:30:15;;;;;;;7.10;2.40;;;;;;;6.29;55.82;102031.41;5035363;28;20045;-71
2021/04/08 01:32:50;;;;;;;7.35;2.28;;;;;;;6.31;55.96;102021.03;5055724;28;20045;-68
2021/04/08 01:35:26;;;;;;;9.07;2.40;;;;;;;6.56;55.37;102024.91;5038716;28;20041;-71
2021/04/08 01:38:08;;;;;;;10.25;2.67;;;;;;;6.51;55.94;102026.75;5037746;28;20044;-69
2021/04/08 01:44:56;;;;;;;12.70;2.85;;;;;;;6.51;55.98;102029.50;5053452;28;20064;-68
2021/04/08 01:47:37;;;;;;;10.57;2.95;;;;;;;6.40;56.27;102031.28;5038262;28;20064;-72
2021/04/08 01:50:08;;;;;;;5.80;2.45;;;;;;;6.10;57.43;102044.53;5053874;28;20503;-70
2021/04/08 01:52:39;;;;;;;7.60;2.47;;;;;;;6.10;57.25;102033.59;5016959;28;20067;-70
2021/04/08 01:55:08;;;;;;;13.02;2.60;;;;;;;6.33;57.11;102038.03;5035395;28;20437;-70
2021/04/08 01:57:41;;;;;;;10.25;2.78;;;;;;;6.32;56.34;102039.09;5053742;28;20117;-70
2021/04/08 02:00:12;;;;;;;8.70;2.90;;;;;;;6.15;57.47;102041.06;5053118;28;20049;-69
2021/04/08 02:02:44;;;;;;;12.32;2.72;;;;;;;6.04;57.54;102041.97;5053783;28;20052;-71
2021/04/08 02:05:14;;;;;;;6.50;2.70;;;;;;;5.81;58.10;102037.50;5035855;28;20546;-70
2021/04/08 02:07:43;;;;;;;5.83;2.40;;;;;;;6.07;57.60;102042.31;5036233;28;20041;-69
2021/04/08 02:10:11;;;;;;;8.37;2.27;;;;;;;6.11;57.83;102038.00;5035950;28;20752;-71
2021/04/08 02:12:40;;;;;;;6.03;2.10;;;;;;;6.02;57.99;102034.03;5034075;28;20372;-70
2021/04/08 02:15:09;;;;;;;6.78;2.35;;;;;;;6.17;57.53;102044.38;5053905;28;20086;-69
2021/04/08 02:17:37;;;;;;;11.88;2.95;;;;;;;6.06;57.90;102034.34;5053445;28;20068;-69
2021/04/08 02:20:12;;;;;;;8.70;2.38;;;;;;;6.31;57.17;102038.25;5035561;28;20515;-69
2021/04/08 02:22:45;;;;;;;9.43;2.55;;;;;;;6.61;56.39;102022.25;5035325;28;20045;-70
2021/04/08 02:25:15;;;;;;;10.30;2.90;;;;;;;6.30;57.27;102039.34;5052971;28;20060;-71
2021/04/08 02:27:43;;;;;;;12.93;2.53;;;;;;;6.14;57.20;102039.38;5045038;28;20055;-70
2021/04/08 02:30:13;;;;;;;8.85;2.25;;;;;;;6.06;57.53;102034.34;5052583;28;20040;-73
2021/04/08 02:32:41;;;;;;;8.30;2.63;;;;;;;6.52;56.94;102023.75;5053044;28;20053;-69
2021/04/08 02:35:14;;;;;;;10.88;2.50;;;;;;;6.96;55.02;102027.28;5035746;28;20041;-70
2021/04/08 02:37:42;;;;;;;6.22;2.05;;;;;;;6.54;55.40;102018.88;5018948;28;20056;-69
2021/04/08 02:40:13;;;;;;;8.13;2.75;;;;;;;6.64;55.68;102024.47;5051140;28;20049;-70
2021/04/08 02:42:41;;;;;;;12.45;2.20;;;;;;;6.63;55.38;102019.25;5052332;28;20052;-69
2021/04/08 02:45:11;;;;;;;7.03;2.25;;;;;;;6.44;55.39;102016.00;5052481;28;20060;-71
2021/04/08 02:47:38;;;;;;;8.32;2.63;;;;;;;6.52;55.47;102023.75;5052733;28;20056;-70
2021/04/08 02:50:07;;;;;;;7.82;2.53;;;;;;;6.71;55.33;102016.88;5034836;28;20392;-69
2021/04/08 02:53:04;;;;;;;9.15;2.80;;;;;;;6.65;55.08;102009.69;5034842;28;20057;-69
2021/04/08 02:55:52;;;;;;;8.55;2.38;;;;;;;6.50;55.79;102012.25;4974789;28;20124;-69
2021/04/08 02:58:19;;;;;;;7.43;2.40;;;;;;;6.72;55.38;102014.97;4990501;28;20054;-69
2021/04/08 03:01:07;;;;;;;5.80;2.55;;;;;;;6.67;54.96;102017.66;4989815;28;20054;-70
2021/04/08 03:03:37;;;;;;;7.95;2.50;;;;;;;6.61;55.28;102014.03;4957608;28;20149;-71
2021/04/08 03:06:09;;;;;;;8.05;2.63;;;;;;;6.73;55.47;102013.88;4958890;28;20054;-70
2021/04/08 03:08:45;;;;;;;10.65;2.78;;;;;;;6.83;54.75;102012.09;4990614;28;20082;-70
2021/04/08 03:11:13;;;;;;;8.38;2.15;;;;;;;7.17;54.20;102012.72;4990189;28;20410;-71
2021/04/08 03:13:42;;;;;;;10.48;2.88;;;;;;;7.70;52.80;101998.94;4989737;28;20050;-69
2021/04/08 03:16:20;;;;;;;9.25;2.70;;;;;;;7.37;52.80;101998.38;4973809;28;20038;-70
2021/04/08 03:18:50;;;;;;;9.63;2.63;;;;;;;7.19;53.78;101996.84;4989630;28;20061;-70
2021/04/08 03:21:18;;;;;;;11.65;2.83;;;;;;;7.14;53.29;101999.53;4987007;28;20748;-70
2021/04/08 03:23:48;;;;;;;9.52;2.78;;;;;;;7.32;53.31;101996.41;4973560;28;20062;-69
2021/04/08 03:26:19;;;;;;;8.73;2.97;;;;;;;7.06;53.64;102001.94;4973862;28;20121;-69
2021/04/08 03:28:47;;;;;;;9.50;2.47;;;;;;;7.04;53.89;102004.94;4989770;28;20177;-69
2021/04/08 03:31:14;;;;;;;11.38;2.72;;;;;;;7.22;53.45;102007.28;4958824;28;20485;-69
2021/04/08 03:33:45;;;;;;;9.68;2.40;;;;;;;7.44;53.16;101996.25;5033387;28;20049;-69
2021/04/08 03:36:16;;;;;;;6.65;2.47;;;;;;;7.54;52.23;101997.16;5049618;28;20053;-70
2021/04/08 03:38:48;;;;;;;6.50;2.10;;;;;;;7.45;52.57;102006.94;5018378;28;20057;-70
2021/04/08 03:41:22;;;;;;;7.95;2.40;;;;;;;7.33;53.01;102002.72;5034666;28;20041;-70
2021/04/08 03:43:49;;;;;;;9.02;2.30;;;;;;;7.72;52.21;101994.00;5051009;28;20049;-71
2021/04/08 03:46:21;;;;;;;7.78;2.70;;;;;;;7.68;52.10;102003.03;5034066;28;20060;-70
2021/04/08 03:48:49;;;;;;;8.05;2.75;;;;;;;7.69;51.87;101991.78;5033372;28;20064;-70
2021/04/08 03:51:22;;;;;;;7.80;2.97;;;;;;;7.47;52.14;101988.34;5049863;28;20053;-68
2021/04/08 03:53:56;;;;;;;7.97;2.95;;;;;;;7.71;51.71;101981.38;5047501;28;20045;-71
2021/04/08 03:56:24;;;;;;;6.97;2.97;;;;;;;7.33;52.63;101975.31;5048156;28;20045;-69
2021/04/08 03:58:52;;;;;;;10.88;3.05;;;;;;;7.30;52.54;101978.59;5033136;28;20484;-70
2021/04/08 04:01:19;;;;;;;11.77;3.55;;;;;;;7.41;52.35;101975.66;5033364;28;20052;-69
2021/04/08 04:03:49;;;;;;;7.68;3.35;;;;;;;7.39;52.18;101982.50;5032714;28;20048;-70
2021/04/08 04:06:17;;;;;;;7.68;3.08;;;;;;;7.24;52.39;101976.88;5033121;28;20056;-71
2021/04/08 04:08:44;;;;;;;14.43;4.28;;;;;;;7.19;52.60;101980.41;5051069;28;20052;-70
2021/04/08 04:11:12;;;;;;;16.13;5.88;;;;;;;7.56;51.74;101975.81;5050895;28;20049;-68
2021/04/08 04:13:40;;;;;;;11.68;5.32;;;;;;;7.42;51.89;101987.47;5050675;28;20049;-69
2021/04/08 04:16:10;;;;;;;14.23;6.53;;;;;;;7.33;51.96;101989.84;5018034;28;20053;-71
2021/04/08 04:18:39;;;;;;;14.20;6.43;;;;;;;7.43;52.06;101994.59;5033093;28;20068;-70
2021/04/08 04:21:10;;;;;;;19.38;6.93;;;;;;;7.34;52.80;101987.94;5033650;28;20056;-69
2021/04/08 04:23:43;;;;;;;16.15;6.20;;;;;;;7.41;52.28;101988.56;5050557;28;20056;-72
2021/04/08 04:26:12;;;;;;;14.98;6.05;;;;;;;7.53;52.14;101981.78;5032634;28;20049;-71
2021/04/08 04:28:39;;;;;;;17.70;5.30;;;;;;;7.47;52.56;101982.00;5049762;28;20072;-70
2021/04/08 04:31:07;;;;;;;18.85;5.18;;;;;;;7.45;52.56;101973.22;5049817;28;20053;-69
2021/04/08 04:33:34;;;;;;;15.52;4.95;;;;;;;7.32;52.87;101979.97;5050761;28;20045;-70
2021/04/08 04:36:01;;;;;;;12.02;4.45;;;;;;;7.40;52.80;101976.75;5033003;28;20497;-71
2021/04/08 04:38:29;;;;;;;12.52;4.10;;;;;;;7.36;52.93;101975.63;5029535;28;20053;-69
2021/04/08 04:40:56;;;;;;;10.85;4.03;;;;;;;7.43;53.13;101978.97;5050532;28;20071;-70
2021/04/08 04:43:30;;;;;;;15.75;4.03;;;;;;;7.48;52.64;101972.72;5034144;28;20055;-70
2021/04/08 04:45:59;;;;;;;10.23;4.20;;;;;;;7.19;53.82;101974.09;5047322;28;20526;-69
2021/04/08 04:48:32;;;;;;;10.80;4.28;;;;;;;7.37;53.67;101982.78;5032657;28;20056;-69
2021/04/08 04:50:59;;;;;;;12.63;4.30;;;;;;;7.45;53.59;101981.44;5031909;28;20072;-69
2021/04/08 04:53:32;;;;;;;13.93;4.85;;;;;;;7.27;53.67;101977.19;5050250;28;20518;-71
2021/04/08 04:56:08;;;;;;;15.30;4.00;;;;;;;7.23;53.86;101983.47;5044798;28;20045;-69
2021/04/08 04:58:36;;;;;;;12.23;4.70;;;;;;;7.32;53.68;101982.69;4998459;28;20062;-69
2021/04/08 05:01:03;;;;;;;12.32;4.53;;;;;;;7.35;53.62;101984.94;5032668;28;20060;-69
2021/04/08 05:03:30;;;;;;;13.23;4.85;;;;;;;7.47;53.87;101987.50;5032822;28;20484;-70
2021/04/08 05:06:00;;;;;;;11.20;3.58;;;;;;;7.03;55.00;101991.47;5036944;28;20049;-70
2021/04/08 05:08:32;;;;;;;10.50;4.20;;;;;;;7.32;54.07;101990.13;5052304;28;20392;-70
2021/04/08 05:11:04;;;;;;;14.10;4.55;;;;;;;7.52;53.70;101987.53;5053865;28;20063;-70
2021/04/08 05:13:51;;;;;;;12.00;4.53;;;;;;;7.36;53.90;101991.22;5053430;28;20052;-70
2021/04/08 05:16:35;;;;;;;13.45;4.80;;;;;;;7.34;54.54;101993.44;5052213;28;20165;-70
2021/04/08 05:19:04;;;;;;;14.25;4.47;;;;;;;7.41;54.30;101994.03;5019409;28;20067;-69
2021/04/08 05:21:31;;;;;;;12.50;4.25;;;;;;;7.47;53.74;101987.50;5052928;28;20049;-69
2021/04/08 05:23:58;;;;;;;13.13;4.78;;;;;;;7.37;54.08;101982.78;5035457;28;20045;-70
2021/04/08 05:26:27;;;;;;;10.63;4.27;;;;;;;7.40;54.08;101989.63;5053180;28;20083;-71
2021/04/08 05:28:56;;;;;;;14.13;4.28;;;;;;;7.50;53.49;101990.53;5035830;28;20415;-70
2021/04/08 05:31:41;;;;;;;13.93;5.22;;;;;;;7.28;54.24;101994.47;5036491;28;20049;-70
2021/04/08 05:34:08;;;;;;;14.32;4.63;;;;;;;7.42;54.24;101993.78;5053517;28;20522;-70
2021/04/08 05:36:35;;;;;;;12.93;4.50;;;;;;;7.48;53.80;101989.97;5052766;28;20056;-69
2021/04/08 05:39:03;;;;;;;13.68;4.28;;;;;;;7.27;53.79;101992.81;5053612;28;20068;-71
2021/04/08 05:41:48;;;;;;;12.02;4.93;;;;;;;7.14;54.59;101983.09;5053185;28;20055;-69
2021/04/08 05:44:15;;;;;;;13.07;5.00;;;;;;;7.53;54.09;101997.44;5053746;28;20048;-69
2021/04/08 05:46:43;;;;;;;14.25;4.40;;;;;;;7.40;53.79;101995.94;5049251;28;20055;-70
2021/04/08 05:49:10;;;;;;;15.48;4.80;;;;;;;7.59;53.57;102005.41;5053143;28;20056;-75
2021/04/08 05:51:40;;;;;;;15.98;4.85;;;;;;;7.08;55.07;102000.56;5037244;28;20158;-70
2021/04/08 05:54:07;;;;;;;13.43;4.60;;;;;;;7.23;54.78;102000.72;5052548;28;20048;-70
2021/04/08 05:56:43;;;;;;;13.18;4.78;;;;;;;7.32;55.18;101998.34;5053657;28;20511;-71
2021/04/08 05:59:10;;;;;;;12.07;4.28;;;;;;;7.52;54.41;102007.56;5052935;28;20060;-71
2021/04/08 06:01:39;;;;;;;14.38;5.32;;;;;;;7.29;55.83;102007.06;5052967;28;20075;-69
2021/04/08 06:04:07;;;;;;;15.50;4.60;;;;;;;6.94;57.46;102010.28;5053332;28;20056;-70
2021/04/08 06:06:36;;;;;;;13.93;5.25;;;;;;;6.86;57.72;102016.22;5052527;28;20068;-70
2021/04/08 06:09:12;;;;;;;16.05;5.13;;;;;;;6.83;58.32;102019.50;5037133;28;20041;-70
2021/04/08 06:11:40;;;;;;;15.50;5.68;;;;;;;6.64;59.07;102016.25;5035235;28;20040;-68
2021/04/08 06:14:08;;;;;;;11.23;4.80;;;;;;;6.46;59.68;102011.13;5052337;28;20056;-70
2021/04/08 06:16:35;;;;;;;13.88;5.38;;;;;;;6.30;60.63;102025.69;5053044;28;20041;-68
2021/04/08 06:19:06;;;;;;;12.20;5.25;;;;;;;6.30;60.84;102022.09;5053754;28;20045;-70
2021/04/08 06:21:51;;;;;;;16.90;5.53;;;;;;;6.51;59.72;102026.75;5052612;28;20053;-69
2021/04/08 06:24:18;;;;;;;14.77;4.90;;;;;;;6.81;58.47;102022.50;5035437;28;20584;-69
2021/04/08 06:26:47;;;;;;;14.98;5.22;;;;;;;6.64;58.45;102027.19;5052844;28;20412;-71
2021/04/08 06:29:17;;;;;;;15.52;5.10;;;;;;;6.81;57.77;102022.50;5051917;28;20497;-69
2021/04/08 06:31:49;;;;;;;20.38;5.28;;;;;;;6.94;58.26;102025.91;5035427;28;20331;-68
2021/04/08 06:34:16;;;;;;;14.85;5.10;;;;;;;7.06;57.90;102032.06;5052165;28;20049;-70
2021/04/08 06:36:43;;;;;;;13.15;4.78;;;;;;;7.23;56.86;102025.41;5051846;28;20049;-71
2021/04/08 06:39:12;;;;;;;11.93;4.95;;;;;;;6.99;57.65;102021.28;5035311;28;20045;-71
2021/04/08 06:41:40;;;;;;;16.98;7.60;;;;;;;7.10;57.33;102024.97;5034334;28;20053;-71
2021/04/08 06:44:09;;;;;;;14.43;5.55;;;;;;;7.29;56.77;102021.59;5052086;28;20457;-70
2021/04/08 06:46:37;;;;;;;13.00;5.25;;;;;;;7.19;57.11;102016.03;5034493;28;20068;-70
2021/04/08 06:49:33;;;;;;;21.05;5.30;;;;;;;7.32;56.78;102014.78;5035275;28;20191;-71
2021/04/08 06:52:00;;;;;;;21.33;5.57;;;;;;;7.53;56.50;102013.88;5035637;28;20404;-69
2021/04/08 06:54:29;;;;;;;15.38;5.70;;;;;;;7.58;55.98;102022.94;5050954;28;20056;-71
2021/04/08 06:56:56;;;;;;;14.20;4.97;;;;;;;7.45;56.61;102019.81;5051342;28;20049;-68
2021/04/08 06:59:23;;;;;;;13.13;4.72;;;;;;;7.83;55.97;102025.06;5051395;28;20049;-71
2021/04/08 07:01:50;;;;;;;13.60;4.93;;;;;;;7.81;54.57;102028.06;5018081;28;20502;-70
2021/04/08 07:04:47;;;;;;;15.73;5.53;;;;;;;7.87;55.18;102026.19;5038306;28;20049;-72
2021/04/08 07:07:15;;;;;;;16.60;5.28;;;;;;;7.93;54.60;102023.22;5052357;28;20404;-72
2021/04/08 07:10:04;;;;;;;15.30;5.32;;;;;;;7.96;54.29;102032.84;5034739;28;20060;-72
2021/04/08 07:12:34;;;;;;;14.57;5.88;;;;;;;8.10;54.28;102027.72;5052776;28;20048;-73
2021/04/08 07:15:08;;;;;;;18.23;6.38;;;;;;;8.43;53.52;102030.97;5050832;28;20407;-69
2021/04/08 07:17:44;;;;;;;17.20;6.68;;;;;;;8.24;53.65;102031.69;5051108;28;20352;-71
2021/04/08 07:20:16;;;;;;;19.33;6.05;;;;;;;8.25;53.61;102028.66;5051974;28;20048;-70
2021/04/08 07:22:46;;;;;;;;;;;;;;;8.28;53.86;102028.13;5053024;28;20041;-71
2021/04/08 07:25:33;;;;;;;15.40;5.38;;;;;;;8.22;53.87;102033.81;5051370;28;20503;-72
2021/04/08 07:28:33;;;;;;;18.95;6.13;;;;;;;8.26;53.19;102027.59;5051942;28;20549;-72
2021/04/08 07:31:32;;;;;;;16.35;6.15;;;;;;;7.97;53.92;102034.50;5052027;28;20059;-75
2021/04/08 07:34:06;;;;;;;24.25;5.72;;;;;;;8.13;53.68;102029.91;5033206;28;20052;-75
2021/04/08 07:36:37;;;;;;;18.52;6.05;;;;;;;8.36;53.51;102030.38;5051431;28;20127;-74
2021/04/08 07:39:16;;;;;;;19.17;5.47;;;;;;;8.26;53.48;102029.50;5051378;28;20052;-73
2021/04/08 07:41:43;;;;;;;13.50;5.22;;;;;;;8.12;53.32;102031.03;5049379;28;20060;-70
2021/04/08 07:48:53;;;;;;;19.65;5.85;;;;;;;8.39;52.92;102020.75;5050431;28;20510;-71
2021/04/08 07:51:29;;;;;;;16.17;6.07;;;;;;;8.76;52.19;102024.22;5050358;28;20053;-73
2021/04/08 07:54:10;;;;;;;16.25;6.80;;;;;;;8.65;51.72;102022.53;5049587;28;20060;-73
2021/04/08 07:56:37;;;;;;;17.70;7.45;;;;;;;8.54;52.21;102021.66;5048177;28;20056;-73
2021/04/08 07:59:27;;;;;;;20.33;6.88;;;;;;;8.55;51.94;102026.06;5032365;28;20460;-70
2021/04/08 08:02:08;;;;;;;22.25;7.30;;;;;;;8.65;52.06;102019.78;5034196;28;20475;-74
2021/04/08 08:04:37;;;;;;;23.65;7.13;;;;;;;8.52;52.24;102029.38;5032941;28;20056;-73
2021/04/08 08:07:04;;;;;;;18.25;6.38;;;;;;;8.48;52.51;102033.72;5032183;28;20484;-73
2021/04/08 08:09:35;;;;;;;13.98;6.72;;;;;;;8.65;52.17;102036.25;5033949;28;20064;-75
2021/04/08 08:12:11;;;;;;;16.60;6.80;;;;;;;8.46;52.61;102033.16;5032908;28;20033;-73
2021/04/08 08:14:42;;;;;;;20.85;6.97;;;;;;;8.57;52.45;102032.13;5050604;28;20049;-76
2021/04/08 08:17:14;;;;;;;24.98;8.68;;;;;;;8.52;52.15;102026.63;5032932;28;20037;-77
2021/04/08 08:19:45;;;;;;;20.90;8.30;;;;;;;8.98;52.92;102035.81;5051001;28;20048;-78
2021/04/08 08:22:26;;;;;;;17.20;6.70;;;;;;;8.94;52.06;102032.00;5051056;28;20032;-75
2021/04/08 08:24:58;;;;;;;18.95;7.47;;;;;;;8.83;52.55;102035.78;5033271;28;20511;-76
2021/04/08 08:27:50;;;;;;;19.80;7.43;;;;;;;8.93;51.83;102028.41;5050039;28;20040;-76
2021/04/08 08:30:31;;;;;;;23.92;8.52;;;;;;;9.40;51.10;102038.38;5051002;28;20518;-74
2021/04/08 08:33:09;;;;;;;14.25;7.43;;;;;;;9.91;50.71;102029.03;5050639;28;20045;-76
2021/04/08 08:35:40;;;;;;;16.15;7.28;;;;;;;9.90;50.46;102035.66;5045260;28;20056;-79
2021/04/08 08:38:18;;;;;;;20.75;7.50;;;;;;;9.85;49.64;102039.22;5050918;28;20052;-77
2021/04/08 08:40:47;;;;;;;19.05;7.80;;;;;;;9.70;49.63;102041.16;5050193;28;20048;-75
2021/04/08 08:43:16;;;;;;;18.55;7.47;;;;;;;9.79;49.83;102028.50;5049856;28;20476;-76
2021/04/08 08:45:56;;;;;;;18.70;7.80;;;;;;;10.04;49.72;102032.03;5016584;28;20052;-76
2021/04/08 08:48:23;;;;;;;23.10;7.57;;;;;;;9.68;49.42;102030.44;5034436;28;20053;-79
2021/04/08 08:50:51;;;;;;;23.10;7.88;;;;;;;10.07;49.56;102030.66;5032388;28;20492;-77
2021/04/08 08:53:18;;;;;;;19.60;7.38;;;;;;;10.23;49.19;102028.75;5043248;28;20511;-75
2021/04/08 08:55:45;;;;;;;17.77;7.82;;;;;;;9.83;49.37;102032.34;5049645;28;20053;-73
2021/04/08 08:58:15;;;;;;;;;;;;;;;9.88;48.40;102032.34;5033267;28;20041;-72
2021/04/08 09:00:42;;;;;;;16.83;7.78;;;;;;;9.64;49.17;102032.06;5031866;28;19928;-76
2021/04/08 09:03:12;;;;;;;23.73;8.75;;;;;;;9.70;48.75;102035.66;5016699;28;20049;-76
2021/04/08 09:05:39;;;;;;;25.35;12.75;;;;;;;9.62;49.18;102031.53;5050174;28;20045;-74
2021/04/08 09:08:15;;;;;;;31.13;11.40;;;;;;;9.82;49.51;102039.78;5032800;28;20498;-76
2021/04/08 09:10:55;;;;;;;20.60;8.00;;;;;;;9.78;49.37;102026.88;5032935;28;20057;-76
2021/04/08 09:13:31;;;;;;;19.80;8.40;;;;;;;9.93;48.66;102027.66;5034165;28;20064;-76
2021/04/08 09:16:00;;;;;;;23.58;8.23;;;;;;;10.11;47.77;102035.34;5032141;28;20057;-72
2021/04/08 09:18:27;;;;;;;23.38;8.35;;;;;;;10.03;48.42;102026.81;5016444;28;20496;-71
2021/04/08 09:20:58;;;;;;;19.67;8.00;;;;;;;10.14;47.88;102023.81;5048896;28;20056;-71
2021/04/08 09:23:26;;;;;;;20.10;8.77;;;;;;;10.24;47.47;102025.69;5031784;28;20056;-78
2021/04/08 09:25:56;;;;;;;24.50;9.27;;;;;;;10.25;47.84;102032.03;5050248;28;20071;-78
2021/04/08 09:28:41;;;;;;;23.83;8.93;;;;;;;10.06;47.57;102029.84;5035332;28;20479;-78
2021/04/08 09:31:20;;;;;;;19.85;9.18;;;;;;;10.21;47.11;102026.28;5014765;28;20053;-76
2021/04/08 09:33:48;;;;;;;16.65;9.27;;;;;;;9.95;47.34;102027.38;5050132;28;20053;-76
2021/04/08 09:36:22;;;;;;;24.80;8.80;;;;;;;10.03;47.60;102026.81;5032314;28;20049;-73
2021/04/08 09:39:04;;;;;;;21.25;8.98;;;;;;;9.92;48.05;102016.94;5049565;28;20049;-78
2021/04/08 09:41:46;;;;;;;20.60;8.77;;;;;;;9.75;47.94;102016.38;5033084;28;20053;-77
2021/04/08 09:44:18;;;;;;;25.63;9.38;;;;;;;10.09;47.79;102014.72;5051763;28;20037;-77
2021/04/08 09:46:53;;;;;;;19.65;9.52;;;;;;;9.80;48.17;102017.22;5052036;28;20045;-79
2021/04/08 09:49:39;;;;;;;17.17;8.63;;;;;;;9.98;47.94;102019.41;5034746;28;20480;-81
2021/04/08 09:52:15;;;;;;;16.05;8.80;;;;;;;9.98;47.97;102016.66;5055616;28;20380;-76
2021/04/08 09:54:57;;;;;;;21.33;8.82;;;;;;;10.00;46.76;102008.94;5043590;28;20048;-75
2021/04/08 09:57:34;;;;;;;27.00;9.77;;;;;;;9.59;47.69;102012.00;5033748;28;20056;-75
2021/04/08 10:00:04;;;;;;;19.42;8.27;;;;;;;10.07;47.30;102006.72;5034142;28;20052;-77
2021/04/08 10:02:38;;;;;;;20.92;10.25;;;;;;;10.02;47.14;102005.91;5051104;28;20045;-75
2021/04/08 10:05:11;;;;;;;23.05;8.95;;;;;;;9.90;47.12;102002.63;5053169;28;20045;-74
2021/04/08 10:07:55;;;;;;;16.27;8.75;;;;;;;10.30;46.16;101998.97;5054587;28;20045;-73
2021/04/08 10:10:42;;;;;;;23.55;9.80;;;;;;;10.91;45.01;101987.38;5053372;28;20037;-75
2021/04/08 10:13:29;;;;;;;21.80;9.02;;;;;;;10.57;46.05;101980.13;5036204;28;20045;-74
2021/04/08 10:20:15;;;;;;;17.38;8.23;;;;;;;10.50;44.67;101980.44;5051254;28;20052;-72
2021/04/08 10:22:44;;;;;;;17.10;7.95;;;;;;;10.47;45.40;101980.19;5052884;28;20049;-72
2021/04/08 10:25:12;;;;;;;12.13;7.35;;;;;;;10.55;44.75;101974.91;5053184;28;20041;-76
2021/04/08 10:27:42;;;;;;;16.92;7.32;;;;;;;10.45;44.47;101977.72;5052036;28;20064;-76
2021/04/08 10:30:17;;;;;;;16.85;7.65;;;;;;;10.33;44.69;101965.38;5053653;28;20392;-74
2021/04/08 10:32:44;;;;;;;15.43;7.57;;;;;;;10.48;44.52;101963.38;5052061;28;20491;-73
2021/04/08 10:35:19;;;;;;;14.68;7.57;;;;;;;10.88;43.62;101965.91;5052312;28;20060;-75
2021/04/08 10:37:46;;;;;;;17.33;7.55;;;;;;;10.82;43.57;101964.31;5035701;28;20500;-74
2021/04/08 10:40:16;;;;;;;24.42;9.95;;;;;;;10.81;43.49;101959.88;5019179;28;20057;-78
2021/04/08 10:42:45;;;;;;;18.95;8.43;;;;;;;12.42;45.54;101956.47;5035359;28;20048;-73
2021/04/08 10:45:13;;;;;;;20.23;8.82;;;;;;;11.53;42.23;101958.25;5035289;28;20045;-71
2021/04/08 10:47:41;;;;;;;17.13;9.05;;;;;;;10.90;43.40;101958.19;5053375;28;20056;-70
2021/04/08 10:50:10;;;;;;;18.15;10.18;;;;;;;10.87;43.25;101955.16;5052046;28;20049;-72
2021/04/08 10:52:38;;;;;;;24.35;10.73;;;;;;;10.39;45.06;101948.53;5051316;28;20053;-71
2021/04/08 10:55:09;;;;;;;18.20;9.13;;;;;;;10.67;44.74;101945.09;5051986;28;20045;-73
2021/04/08 10:57:39;;;;;;;27.63;10.55;;;;;;;10.69;44.30;101942.03;5052363;28;20060;-74
2021/04/08 11:00:08;;;;;;;19.35;9.35;;;;;;;10.61;43.75;101935.22;5052257;28;20044;-71
2021/04/08 11:02:43;;;;;;;18.20;9.32;;;;;;;10.66;43.71;101935.19;5048529;28;20052;-69
2021/04/08 11:05:17;;;;;;;19.85;9.10;;;;;;;10.50;43.83;101933.59;5033308;28;20049;-72
2021/04/08 11:07:48;;;;;;;23.88;9.48;;;;;;;10.55;43.92;101933.56;5051952;28;20109;-69
2021/04/08 11:10:19;;;;;;;21.50;9.25;;;;;;;10.31;43.99;101931.78;5051989;28;20129;-70
2021/04/08 11:12:50;;;;;;;18.67;9.70;;;;;;;10.52;43.89;101930.56;5051134;28;20068;-73
2021/04/08 11:15:21;;;;;;;22.17;9.02;;;;;;;9.96;44.17;101932.69;5051485;28;20146;-71
2021/04/08 11:17:53;;;;;;;23.27;9.45;;;;;;;10.34;44.17;101926.53;5033201;28;20068;-69
2021/04/08 11:20:32;;;;;;;19.50;11.45;;;;;;;10.47;43.62;101922.34;5050842;28;20060;-73
2021/04/08 11:23:00;;;;;;;17.48;8.55;;;;;;;10.37;43.43;101916.88;5034404;28;20053;-69
2021/04/08 11:25:28;;;;;;;20.08;8.60;;;;;;;10.71;43.14;101917.78;5034056;28;20396;-72
2021/04/08 11:27:59;;;;;;;15.55;8.57;;;;;;;10.86;42.77;101913.00;5033845;28;20476;-70
2021/04/08 11:30:34;;;;;;;18.85;7.68;;;;;;;11.10;42.13;101913.09;5034242;28;20056;-69
2021/04/08 11:33:02;;;;;;;20.70;8.43;;;;;;;11.30;41.23;101904.66;5049762;28;20057;-71
2021/04/08 11:35:47;;;;;;;12.38;7.00;;;;;;;10.82;42.06;101911.09;5050768;28;20049;-71
2021/04/08 11:38:15;;;;;;;18.98;7.57;;;;;;;10.99;42.15;101906.00;5051096;28;20056;-71
2021/04/08 11:40:43;;;;;;;15.80;6.88;;;;;;;11.65;40.75;101906.28;5017078;28;20452;-70
2021/04/08 11:43:45;;;;;;;14.23;6.82;;;;;;;11.39;41.35;101902.91;5046732;28;20049;-71
2021/04/08 11:46:28;;;;;;;12.82;5.50;;;;;;;11.57;40.68;101896.69;5050823;28;20049;-71
2021/04/08 11:48:57;;;;;;;10.95;5.38;;;;;;;11.33;40.50;101895.81;5032993;28;20155;-70
2021/04/08 11:51:29;;;;;;;16.33;5.32;;;;;;;11.23;40.83;101891.19;5050409;28;20045;-69
2021/04/08 11:54:16;;;;;;;14.18;5.22;;;;;;;11.35;40.22;101893.56;5051367;28;20049;-69
2021/04/08 11:56:44;;;;;;;9.50;4.95;;;;;;;11.56;40.18;101889.50;5033625;28;20048;-72
2021/04/08 11:59:34;;;;;;;11.45;5.22;;;;;;;11.27;40.57;101884.00;5014872;28;20395;-72
2021/04/08 12:06:51;;;;;;;;;;;;;;;11.15;39.86;101878.03;5051150;28;20055;-68
2021/04/08 12:09:37;;;;;;;11.13;4.95;;;;;;;11.15;39.71;101872.53;5050870;28;19917;-71